Time;durP1;ratioP1;P1;durP2;ratioP2;P2;SDS_P1;SDS_P2;PMS_P1;PMS_P2;Temp;Humidity;BMP_temperature;BMP_pressure;BME280_temperature;BME280_humidity;BME280_pressure;Samples;Min_cycle;Max_cycle;Signal;HPM_P1;HPM_P2
2023/10/14 00:01:55;;;;;;;5.70;1.10;;;;;;;17.00;78.77;100343.06;4991265;28;20041;-43
2023/10/14 00:04:26;;;;;;;5.35;1.17;;;;;;;16.91;78.99;100346.75;4991308;28;20037;-48
2023/10/14 00:06:51;;;;;;;9.10;1.30;;;;;;;17.38;77.66;100363.31;4991088;28;20038;-44
2023/10/14 00:09:17;;;;;;;8.70;1.70;;;;;;;17.03;78.26;100354.38;4990052;28;20396;-45
2023/10/14 00:11:51;;;;;;;8.57;1.42;;;;;;;17.14;78.11;100354.16;4991717;28;20045;-44
2023/10/14 00:14:18;;;;;;;6.95;1.50;;;;;;;16.69;78.11;100363.88;4991315;28;20134;-44
2023/10/14 00:16:51;;;;;;;9.13;2.05;;;;;;;16.59;77.21;100364.91;4991595;28;20038;-46
2023/10/14 00:19:22;;;;;;;7.38;1.45;;;;;;;16.97;76.29;100372.94;4990356;28;20456;-44
2023/10/14 00:21:49;;;;;;;9.35;1.50;;;;;;;17.18;74.78;100386.56;4990561;28;20038;-44
2023/10/14 00:24:25;;;;;;;6.75;1.33;;;;;;;16.99;73.18;100392.22;4990017;28;20030;-46
2023/10/14 00:26:54;;;;;;;9.68;1.70;;;;;;;17.12;72.57;100405.13;5050184;23;20129;-79
2023/10/14 00:29:20;;;;;;;12.35;1.50;;;;;;;16.67;72.39;100407.78;5071751;28;20063;-79
2023/10/14 00:31:50;;;;;;;10.75;1.48;;;;;;;16.89;71.46;100419.66;5074809;28;20033;-79
2023/10/14 00:34:25;;;;;;;6.60;1.48;;;;;;;16.75;71.23;100426.06;5074214;28;20063;-80
2023/10/14 00:36:50;;;;;;;14.35;1.48;;;;;;;16.34;69.33;100432.91;5068408;28;20037;-79
2023/10/14 00:39:24;;;;;;;6.97;1.45;;;;;;;16.65;68.94;100429.78;5052831;28;20033;-79
2023/10/14 00:41:50;;;;;;;6.25;1.63;;;;;;;16.60;68.48;100443.00;5051807;28;20146;-78
2023/10/14 00:44:17;;;;;;;7.63;1.60;;;;;;;16.54;68.15;100458.88;5053534;28;20083;-78
2023/10/14 00:46:50;;;;;;;6.38;1.30;;;;;;;16.83;67.28;100464.50;5051160;28;20123;-78
2023/10/14 00:49:23;;;;;;;8.82;1.40;;;;;;;16.26;68.12;100462.88;5051201;28;20546;-77
2023/10/14 00:51:57;;;;;;;9.50;1.52;;;;;;;16.13;67.49;100472.72;5052091;28;20521;-79
2023/10/14 00:54:41;;;;;;;9.27;1.50;;;;;;;16.16;67.81;100475.31;5063332;28;20029;-79
2023/10/14 00:59:44;;;;;;;7.47;1.25;;;;;;;16.07;66.95;100488.59;5055924;28;20018;-79
2023/10/14 01:02:29;;;;;;;7.78;1.35;;;;;;;16.08;68.11;100488.56;5056179;28;20044;-78
2023/10/14 01:04:55;;;;;;;11.82;1.60;;;;;;;15.93;66.77;100490.53;5055816;28;20033;-77
2023/10/14 01:07:27;;;;;;;6.90;1.50;;;;;;;15.91;67.03;100503.72;5060692;28;20115;-77
2023/10/14 01:09:52;;;;;;;9.40;1.40;;;;;;;16.08;67.10;100509.59;5057565;28;20037;-77
2023/10/14 01:14:54;;;;;;;12.57;1.73;;;;;;;15.95;66.82;100520.31;5054791;28;20390;-77
2023/10/14 01:17:41;;;;;;;9.43;1.58;;;;;;;16.02;66.28;100522.84;5055998;28;20033;-79
2023/10/14 01:22:51;;;;;;;7.15;1.55;;;;;;;16.23;65.21;100534.78;5056933;28;20037;-77
2023/10/14 01:25:18;;;;;;;11.68;2.10;;;;;;;15.62;65.79;100527.75;5056715;28;20065;-76
2023/10/14 01:27:44;;;;;;;9.88;1.58;;;;;;;15.95;65.39;100538.72;5054878;28;20090;-78
2023/10/14 01:30:21;;;;;;;13.13;1.60;;;;;;;15.80;63.86;100543.28;5055797;28;21464;-77
2023/10/14 01:32:57;;;;;;;8.32;1.50;;;;;;;15.85;64.25;100550.25;5054590;28;20037;-80
2023/10/14 01:37:54;;;;;;;11.20;1.55;;;;;;;15.90;63.12;100561.56;5055496;28;20036;-78
2023/10/14 01:43:07;;;;;;;8.30;1.23;;;;;;;15.70;62.62;100573.22;5055425;28;20037;-78
2023/10/14 01:45:40;;;;;;;10.32;1.42;;;;;;;15.86;62.74;100568.63;5056145;28;20036;-78
2023/10/14 01:50:38;;;;;;;9.93;1.23;;;;;;;15.45;62.68;100574.34;5056043;28;20037;-78
2023/10/14 01:53:11;;;;;;;9.45;1.30;;;;;;;15.57;63.04;100582.13;5053371;28;20052;-78
2023/10/14 01:55:47;;;;;;;9.38;1.23;;;;;;;15.69;62.10;100579.34;5054342;28;20439;-77
2023/10/14 01:58:29;;;;;;;9.48;1.33;;;;;;;15.78;60.71;100581.00;5052972;28;20099;-79
2023/10/14 02:03:44;;;;;;;6.97;1.10;;;;;;;15.84;60.07;100599.34;5054374;28;20037;-78
2023/10/14 02:06:17;;;;;;;6.72;1.25;;;;;;;15.66;61.75;100608.31;5053842;28;20044;-78
2023/10/14 02:08:43;;;;;;;9.02;1.48;;;;;;;15.88;62.07;100611.53;5053840;28;20029;-79
2023/10/14 02:11:16;;;;;;;9.55;1.40;;;;;;;15.70;62.14;100619.66;5054666;28;20576;-76
2023/10/14 02:13:43;;;;;;;7.20;1.38;;;;;;;16.13;62.60;100620.84;5054780;28;20056;-79
2023/10/14 02:16:08;;;;;;;7.95;1.40;;;;;;;16.15;61.92;100631.38;5055227;28;20056;-78
2023/10/14 02:18:36;;;;;;;10.27;1.20;;;;;;;16.00;62.78;100634.16;5053406;28;20560;-79
2023/10/14 02:21:08;;;;;;;8.93;1.50;;;;;;;16.07;63.77;100647.22;5055114;28;20083;-79
2023/10/14 02:23:43;;;;;;;8.55;1.38;;;;;;;15.85;62.75;100658.03;5054653;28;20041;-79
2023/10/14 02:26:16;;;;;;;8.90;1.85;;;;;;;15.88;62.13;100657.97;5054277;28;20226;-77
2023/10/14 02:28:47;;;;;;;9.13;1.23;;;;;;;15.81;60.90;100667.69;5053908;28;20120;-78
2023/10/14 02:31:17;;;;;;;7.15;1.15;;;;;;;15.93;60.34;100667.56;5054446;28;20033;-78
2023/10/14 02:33:46;;;;;;;5.25;1.20;;;;;;;15.79;60.13;100678.25;5056014;28;20511;-77
2023/10/14 02:36:16;;;;;;;11.77;1.50;;;;;;;16.21;60.49;100681.25;5057244;28;20025;-79
2023/10/14 02:38:53;;;;;;;13.85;1.20;;;;;;;16.25;60.32;100685.56;5059159;28;20052;-79
2023/10/14 02:41:19;;;;;;;10.35;1.77;;;;;;;15.71;61.02;100689.72;5059456;28;20116;-78
2023/10/14 02:43:48;;;;;;;7.15;1.13;;;;;;;15.93;59.45;100692.97;5059905;28;20116;-78
2023/10/14 02:46:20;;;;;;;5.95;1.27;;;;;;;16.04;57.89;100699.84;5055334;28;20090;-77
2023/10/14 02:48:56;;;;;;;8.25;1.23;;;;;;;15.86;58.09;100715.00;5060148;28;20612;-78
2023/10/14 02:51:35;;;;;;;8.60;1.50;;;;;;;15.82;58.89;100712.38;5061236;28;20060;-79
2023/10/14 02:59:22;;;;;;;12.82;1.63;;;;;;;15.66;57.63;100737.09;5061632;28;20021;-77
2023/10/14 03:02:10;;;;;;;11.00;1.45;;;;;;;15.39;57.22;100753.91;5059905;28;20025;-78
2023/10/14 03:07:33;;;;;;;8.50;1.40;;;;;;;15.42;55.68;100755.66;5064752;28;20029;-77
2023/10/14 03:10:19;;;;;;;8.75;1.00;;;;;;;15.63;56.00;100762.50;5062091;28;20025;-78
2023/10/14 03:12:49;;;;;;;8.85;1.20;;;;;;;15.39;57.14;100768.81;5057997;28;20424;-78
2023/10/14 03:15:38;;;;;;;9.48;1.08;;;;;;;15.50;57.19;100776.59;5057045;28;20029;-77
2023/10/14 03:18:07;;;;;;;10.10;1.27;;;;;;;15.57;56.26;100773.94;5060398;28;20040;-78
2023/10/14 03:20:39;;;;;;;8.05;1.15;;;;;;;15.83;57.02;100785.09;5061257;28;20116;-79
2023/10/14 03:23:23;;;;;;;11.25;1.27;;;;;;;15.67;57.87;100787.88;5054366;28;20040;-78
2023/10/14 03:26:10;;;;;;;11.63;1.48;;;;;;;15.93;57.69;100785.88;5056629;28;20064;-76
2023/10/14 03:28:39;;;;;;;9.68;1.30;;;;;;;15.78;58.33;100793.91;5055302;28;20029;-79
2023/10/14 03:31:17;;;;;;;10.45;1.23;;;;;;;15.77;59.63;100795.66;5055882;28;20045;-78
2023/10/14 03:33:43;;;;;;;12.95;1.65;;;;;;;15.78;57.70;100802.69;5057546;28;20037;-77
2023/10/14 03:36:15;;;;;;;15.05;2.10;;;;;;;15.52;56.39;100799.38;5053413;28;20401;-77
2023/10/14 03:38:42;;;;;;;9.10;1.60;;;;;;;15.53;56.96;100814.28;5052660;28;20048;-77
2023/10/14 03:43:50;;;;;;;9.65;1.58;;;;;;;15.81;56.08;100821.03;5053641;28;20033;-77
2023/10/14 03:46:40;;;;;;;8.65;1.50;;;;;;;15.59;56.41;100819.47;5053189;28;20033;-77
2023/10/14 03:49:06;;;;;;;16.00;1.48;;;;;;;15.70;56.47;100833.41;5051456;28;20041;-78
2023/10/14 03:51:38;;;;;;;13.25;1.50;;;;;;;15.64;55.99;100836.09;5053327;28;20383;-77
2023/10/14 03:54:12;;;;;;;13.27;1.52;;;;;;;15.66;55.31;100841.34;5051232;28;20045;-79
2023/10/14 03:56:43;;;;;;;13.43;1.80;;;;;;;15.64;55.13;100837.84;5053803;28;20052;-78
2023/10/14 03:59:12;;;;;;;9.20;1.40;;;;;;;15.44;55.75;100840.56;5051538;28;20086;-77
2023/10/14 04:04:22;;;;;;;10.43;1.90;;;;;;;15.59;56.19;100852.78;5052723;28;20033;-77
2023/10/14 04:09:39;;;;;;;10.23;1.50;;;;;;;15.73;57.27;100856.19;5052436;28;20028;-78
2023/10/14 04:12:08;;;;;;;10.13;1.50;;;;;;;15.76;58.15;100864.91;5049233;28;20090;-78
2023/10/14 04:14:43;;;;;;;9.93;1.40;;;;;;;15.78;57.52;100871.03;5049379;28;20060;-79
2023/10/14 04:17:10;;;;;;;9.82;2.00;;;;;;;15.56;57.94;100868.53;5051252;28;21518;-78
2023/10/14 04:19:46;;;;;;;10.10;1.63;;;;;;;15.47;57.31;100879.97;5049637;28;20021;-78
2023/10/14 04:33:04;;;;;;;10.52;1.42;;;;;;;15.46;53.80;100914.13;5057431;28;20052;-79
2023/10/14 04:35:36;;;;;;;7.97;1.25;;;;;;;15.38;53.59;100917.66;5058013;28;20048;-78
2023/10/14 04:38:17;;;;;;;13.52;1.60;;;;;;;15.57;54.92;100925.47;5053612;28;20056;-79
2023/10/14 04:40:53;;;;;;;13.32;1.83;;;;;;;15.26;54.49;100923.00;5054196;28;20043;-78
2023/10/14 04:43:37;;;;;;;11.32;1.85;;;;;;;15.65;54.66;100919.31;5053544;28;20044;-78
2023/10/14 04:51:15;;;;;;;12.43;1.98;;;;;;;15.54;53.88;100936.03;5056086;28;20041;-78
2023/10/14 04:53:44;;;;;;;18.13;1.95;;;;;;;15.28;54.17;100947.50;5053090;28;20031;-78
2023/10/14 04:56:09;;;;;;;11.73;1.60;;;;;;;15.39;54.63;100947.44;5050663;28;20047;-77
2023/10/14 04:58:40;;;;;;;15.00;1.55;;;;;;;15.29;53.73;100948.38;5049457;28;20033;-76
2023/10/14 05:01:17;;;;;;;12.15;1.83;;;;;;;15.46;54.05;100958.78;5049331;28;20107;-78
2023/10/14 05:03:57;;;;;;;10.90;1.60;;;;;;;15.25;54.36;100955.38;5049576;28;20116;-77
2023/10/14 05:06:22;;;;;;;10.52;1.80;;;;;;;15.39;54.28;100956.19;5048940;28;20569;-77
2023/10/14 05:08:56;;;;;;;14.63;1.98;;;;;;;15.27;52.45;100965.88;5050989;28;20057;-79
2023/10/14 05:11:25;;;;;;;13.98;1.60;;;;;;;15.27;52.26;100966.75;5051679;28;20041;-79
2023/10/14 05:14:14;;;;;;;15.50;1.58;;;;;;;15.57;52.69;100978.91;5049863;28;20087;-78
2023/10/14 05:16:53;;;;;;;11.32;1.80;;;;;;;15.29;52.73;100974.66;5050635;28;20401;-77
2023/10/14 05:19:41;;;;;;;9.60;1.63;;;;;;;15.50;53.13;100984.16;5050632;28;20040;-78
2023/10/14 05:22:19;;;;;;;12.07;1.70;;;;;;;15.49;53.98;100993.78;5048419;28;20758;-77
2023/10/14 05:24:49;;;;;;;11.27;1.70;;;;;;;15.73;53.22;100984.97;5048897;28;20458;-79
2023/10/14 05:27:21;;;;;;;12.90;2.25;;;;;;;15.57;53.55;100988.53;5050790;28;20579;-78
2023/10/14 05:29:54;;;;;;;14.10;1.95;;;;;;;15.56;53.08;100990.28;5056840;28;20029;-76
2023/10/14 05:32:24;;;;;;;13.95;2.65;;;;;;;15.29;53.36;100999.16;5048531;28;20033;-78
2023/10/14 05:34:50;;;;;;;12.32;1.63;;;;;;;15.48;52.94;101004.34;5048265;28;20029;-77
2023/10/14 05:37:16;;;;;;;11.70;2.03;;;;;;;15.41;52.76;101012.25;5051917;28;20128;-77
2023/10/14 05:39:42;;;;;;;16.85;1.70;;;;;;;15.38;51.20;101017.50;5054092;28;20053;-77
2023/10/14 05:42:21;;;;;;;9.48;1.50;;;;;;;15.21;51.45;101016.69;5053231;28;20128;-77
2023/10/14 05:45:01;;;;;;;11.48;2.00;;;;;;;15.52;50.80;101020.09;5052411;28;20032;-78
2023/10/14 05:47:27;;;;;;;12.73;2.00;;;;;;;15.52;51.18;101016.56;5051493;28;20033;-78
2023/10/14 05:49:53;;;;;;;13.57;1.88;;;;;;;15.47;52.25;101024.47;5053599;28;20029;-78
2023/10/14 05:52:24;;;;;;;12.40;1.58;;;;;;;15.97;51.82;101026.88;5054633;28;20043;-76
2023/10/14 05:54:55;;;;;;;14.43;2.13;;;;;;;15.92;52.85;101033.06;5056418;28;20025;-79
2023/10/14 05:57:24;;;;;;;10.50;1.90;;;;;;;15.80;53.95;101037.47;5058322;28;20036;-77
2023/10/14 05:59:50;;;;;;;12.07;2.30;;;;;;;15.74;54.79;101042.75;5056112;28;20044;-77
2023/10/14 06:02:19;;;;;;;10.13;2.10;;;;;;;15.89;54.72;101040.94;5056827;28;20036;-78
2023/10/14 06:04:45;;;;;;;9.80;1.55;;;;;;;15.83;56.32;101044.47;5054989;28;20044;-77
2023/10/14 06:07:12;;;;;;;12.40;1.77;;;;;;;15.79;55.05;101054.16;5052931;28;20033;-77
2023/10/14 06:09:38;;;;;;;13.43;2.00;;;;;;;15.48;54.59;101060.38;5052111;28;20068;-79
2023/10/14 06:15:09;;;;;;;10.10;1.58;;;;;;;15.40;54.75;101080.56;5054662;28;20036;-76
2023/10/14 06:17:38;;;;;;;11.10;1.60;;;;;;;15.30;54.13;101082.34;5058949;28;20121;-76
2023/10/14 06:20:14;;;;;;;14.32;2.40;;;;;;;15.69;54.01;101093.59;5056145;28;20029;-76
2023/10/14 06:22:41;;;;;;;12.20;1.90;;;;;;;15.50;53.80;101105.03;5056055;28;20033;-78
2023/10/14 06:25:07;;;;;;;12.20;1.80;;;;;;;15.63;53.06;101101.53;5052256;28;20102;-78
2023/10/14 06:27:33;;;;;;;12.18;2.00;;;;;;;15.54;54.39;101101.56;5052977;28;20032;-76
2023/10/14 06:29:58;;;;;;;10.60;1.95;;;;;;;15.60;55.17;101107.69;5050343;28;20037;-77
2023/10/14 06:32:26;;;;;;;8.18;1.23;;;;;;;15.69;53.95;101112.00;5052648;28;20033;-77
2023/10/14 06:34:57;;;;;;;9.27;1.35;;;;;;;15.60;54.21;101120.81;5052205;28;20064;-77
2023/10/14 06:37:24;;;;;;;11.75;1.65;;;;;;;15.50;54.19;101128.69;5051841;28;20112;-78
2023/10/14 06:39:56;;;;;;;14.65;1.90;;;;;;;15.71;54.32;101124.28;5051929;28;20064;-77
2023/10/14 06:42:22;;;;;;;14.23;1.88;;;;;;;15.57;54.21;101120.81;5051732;28;20108;-77
2023/10/14 06:44:51;;;;;;;15.52;1.67;;;;;;;15.83;53.09;101131.25;5052182;28;20116;-76
2023/10/14 06:47:18;;;;;;;15.88;2.22;;;;;;;15.80;51.37;101137.38;5052273;28;20386;-76
2023/10/14 06:49:44;;;;;;;15.68;1.90;;;;;;;15.99;51.75;101142.56;5052112;28;20076;-78
2023/10/14 06:52:12;;;;;;;11.43;1.60;;;;;;;16.38;51.58;101147.63;5050473;28;20032;-76
2023/10/14 06:54:41;;;;;;;8.75;1.58;;;;;;;16.18;52.16;101154.75;5057032;28;20603;-78
2023/10/14 06:57:09;;;;;;;12.45;1.90;;;;;;;16.23;52.47;101163.47;5061663;28;20463;-79
2023/10/14 06:59:37;;;;;;;12.75;2.22;;;;;;;16.05;52.94;101174.09;5064705;28;20021;-78
2023/10/14 07:02:10;;;;;;;17.35;2.05;;;;;;;15.96;52.66;101172.38;5064662;28;20426;-77
2023/10/14 07:04:40;;;;;;;11.38;2.13;;;;;;;16.36;52.94;101175.69;5060533;28;20029;-78
2023/10/14 07:07:14;;;;;;;12.98;1.92;;;;;;;16.45;55.14;101178.28;5061380;28;20039;-79
2023/10/14 07:09:44;;;;;;;14.02;2.38;;;;;;;16.68;55.46;101177.28;5061756;28;20099;-78
2023/10/14 07:12:13;;;;;;;16.83;1.75;;;;;;;15.93;56.26;101190.78;5059544;28;20075;-78
2023/10/14 07:14:40;;;;;;;16.60;2.17;;;;;;;16.31;57.67;101192.38;5059533;28;20029;-77
2023/10/14 07:17:08;;;;;;;14.43;2.13;;;;;;;16.13;56.63;101203.88;5054519;28;20424;-78
2023/10/14 07:19:35;;;;;;;16.83;2.22;;;;;;;16.06;55.90;101203.00;5052014;28;20328;-79
2023/10/14 07:22:07;;;;;;;15.10;2.15;;;;;;;16.02;57.45;101205.69;5053981;28;20162;-78
2023/10/14 07:24:38;;;;;;;15.93;2.30;;;;;;;15.72;56.27;101201.38;5053830;28;20155;-77
2023/10/14 07:27:04;;;;;;;20.73;2.42;;;;;;;16.10;56.64;101214.41;5054486;28;20497;-78
2023/10/14 07:29:29;;;;;;;10.75;1.77;;;;;;;16.23;57.00;101218.72;5055718;28;20075;-78
2023/10/14 07:31:54;;;;;;;18.10;1.90;;;;;;;16.28;55.15;101214.34;5058298;28;20029;-78
2023/10/14 07:34:26;;;;;;;11.40;1.73;;;;;;;16.20;55.72;101231.91;5059860;28;20100;-78
2023/10/14 07:36:53;;;;;;;17.52;2.25;;;;;;;16.04;55.08;101223.19;5055861;28;20037;-78
2023/10/14 07:39:28;;;;;;;16.83;2.08;;;;;;;15.98;54.81;101224.97;5056589;28;20155;-78
2023/10/14 07:41:54;;;;;;;12.77;1.92;;;;;;;15.74;53.88;101237.28;5059015;28;20055;-79
2023/10/14 07:44:20;;;;;;;9.52;2.03;;;;;;;16.20;53.08;101245.06;5057970;28;20437;-78
2023/10/14 07:46:46;;;;;;;14.20;1.88;;;;;;;15.99;53.61;101246.00;5056416;28;20375;-78
2023/10/14 07:49:13;;;;;;;8.95;1.92;;;;;;;16.46;53.47;101256.38;5059300;28;20057;-77
2023/10/14 07:51:52;;;;;;;12.95;1.80;;;;;;;16.34;52.74;101251.16;5063936;28;20033;-78
2023/10/14 07:54:18;;;;;;;11.30;2.08;;;;;;;16.66;52.42;101258.91;5060322;28;20033;-78
2023/10/14 07:56:46;;;;;;;12.82;1.95;;;;;;;16.48;52.36;101264.22;5064375;28;20041;-78
2023/10/14 07:59:12;;;;;;;10.23;1.77;;;;;;;16.27;52.58;101265.22;5062471;28;20056;-78
2023/10/14 08:01:45;;;;;;;16.10;1.90;;;;;;;16.63;52.51;101262.44;5065400;28;20055;-79
2023/10/14 08:04:24;;;;;;;10.40;1.75;;;;;;;16.40;53.66;101263.41;5065211;28;20033;-78
2023/10/14 08:06:50;;;;;;;15.70;1.90;;;;;;;16.56;52.10;101278.22;5064271;28;20032;-80
2023/10/14 08:09:28;;;;;;;11.88;1.65;;;;;;;16.41;51.97;101273.91;5068281;28;20044;-78
2023/10/14 08:11:54;;;;;;;12.40;1.67;;;;;;;16.60;51.77;101277.34;5066735;28;20199;-78
2023/10/14 08:14:22;;;;;;;9.02;1.52;;;;;;;16.50;52.20;101281.78;5064676;28;20693;-79
2023/10/14 08:16:50;;;;;;;10.15;1.60;;;;;;;16.22;52.32;101290.66;5063525;28;20094;-78
2023/10/14 08:19:21;;;;;;;14.40;1.88;;;;;;;16.61;51.09;101289.66;5065085;28;20033;-79
2023/10/14 08:21:52;;;;;;;15.13;1.98;;;;;;;16.76;52.08;101297.47;5064460;28;20068;-79
2023/10/14 08:24:24;;;;;;;12.90;1.92;;;;;;;17.14;51.23;101299.88;5057998;28;20033;-77
2023/10/14 08:26:49;;;;;;;15.48;2.17;;;;;;;16.74;50.98;101301.88;5056166;28;20040;-80
2023/10/14 08:29:20;;;;;;;11.10;1.73;;;;;;;16.98;50.29;101306.13;5055638;28;20048;-78
2023/10/14 08:31:47;;;;;;;12.52;1.90;;;;;;;16.96;50.69;101307.88;5057268;28;20036;-78
2023/10/14 08:34:13;;;;;;;10.40;1.90;;;;;;;17.27;50.28;101313.84;5059196;28;20509;-78
2023/10/14 08:36:45;;;;;;;18.65;2.30;;;;;;;16.79;50.93;101320.28;5056536;28;20048;-79
2023/10/14 08:39:10;;;;;;;16.60;2.58;;;;;;;16.84;49.90;101308.81;5059435;28;20037;-79
2023/10/14 08:41:37;;;;;;;8.70;1.88;;;;;;;16.97;50.26;101328.94;5055485;28;20033;-78
2023/10/14 08:44:11;;;;;;;11.73;2.33;;;;;;;17.14;50.83;101328.84;5054463;28;20061;-77
2023/10/14 08:46:40;;;;;;;14.93;1.98;;;;;;;16.87;50.97;101337.78;5057164;28;20494;-78
2023/10/14 08:49:08;;;;;;;10.55;1.60;;;;;;;16.98;49.36;101329.81;5056558;28;20064;-80
2023/10/14 08:51:47;;;;;;;15.15;1.88;;;;;;;16.98;49.23;101335.09;5052697;28;20037;-77
2023/10/14 08:54:15;;;;;;;11.93;1.90;;;;;;;17.13;49.33;101332.38;5053690;28;20120;-77
2023/10/14 08:56:43;;;;;;;10.63;1.60;;;;;;;17.05;48.03;101342.09;5056869;28;20033;-78
2023/10/14 08:59:10;;;;;;;12.43;1.88;;;;;;;17.36;48.48;101353.31;5054906;28;20040;-78
2023/10/14 09:01:36;;;;;;;11.55;1.80;;;;;;;17.57;48.15;101350.50;5061717;28;20029;-79
2023/10/14 09:04:11;;;;;;;17.83;1.85;;;;;;;17.97;48.56;101359.00;5062901;28;20402;-80
2023/10/14 09:06:37;;;;;;;11.40;1.90;;;;;;;17.89;47.84;101358.19;5063534;28;20059;-77
2023/10/14 09:09:17;;;;;;;11.38;1.75;;;;;;;17.66;49.19;101371.56;5058654;28;20029;-77
2023/10/14 09:11:52;;;;;;;10.43;1.60;;;;;;;17.52;47.62;101373.41;5056494;28;20530;-78
2023/10/14 09:14:24;;;;;;;10.27;1.67;;;;;;;17.39;47.23;101385.78;5060233;28;20033;-78
2023/10/14 09:16:49;;;;;;;13.65;1.70;;;;;;;17.32;46.67;101388.50;5063112;28;20056;-78
2023/10/14 09:19:23;;;;;;;8.75;1.45;;;;;;;17.37;47.59;101381.41;5068963;28;20040;-77
2023/10/14 09:21:57;;;;;;;11.43;1.60;;;;;;;17.76;46.04;101386.44;5067893;28;20078;-78
2023/10/14 09:24:25;;;;;;;13.77;1.80;;;;;;;17.78;46.34;101384.66;5065467;28;20060;-77
2023/10/14 09:26:52;;;;;;;14.35;1.92;;;;;;;18.03;45.02;101398.53;5064752;28;20092;-78
2023/10/14 09:29:19;;;;;;;9.52;1.70;;;;;;;18.01;46.80;101381.81;5060779;28;20040;-78
2023/10/14 09:31:47;;;;;;;13.18;1.77;;;;;;;17.90;45.89;101391.59;5061853;28;20043;-79
2023/10/14 09:34:23;;;;;;;9.60;1.48;;;;;;;17.20;46.85;101399.94;5056296;28;20025;-77
2023/10/14 09:36:52;;;;;;;13.05;1.98;;;;;;;17.39;47.81;101411.25;5059034;28;20723;-78
2023/10/14 09:39:24;;;;;;;10.60;1.92;;;;;;;17.64;47.32;101415.53;5056580;28;20551;-77
2023/10/14 09:41:58;;;;;;;9.90;1.52;;;;;;;17.49;48.29;101409.47;5056258;28;20068;-76
2023/10/14 09:44:25;;;;;;;13.75;1.80;;;;;;;17.36;47.29;101403.38;5054636;28;20517;-77
2023/10/14 09:46:58;;;;;;;11.25;1.80;;;;;;;17.13;47.60;101408.78;5055315;28;20033;-77
2023/10/14 09:49:25;;;;;;;11.57;1.60;;;;;;;17.53;47.23;101409.44;5053506;28;20078;-76
2023/10/14 09:51:55;;;;;;;10.75;1.80;;;;;;;17.46;48.21;101420.88;5053856;28;20119;-76
2023/10/14 09:54:41;;;;;;;10.98;1.70;;;;;;;17.61;47.72;101426.13;5055489;28;20048;-77
2023/10/14 09:57:12;;;;;;;11.50;1.80;;;;;;;17.22;48.68;101429.81;5056114;28;20513;-77
2023/10/14 09:59:44;;;;;;;10.35;1.83;;;;;;;17.14;46.62;101436.88;5057119;28;20077;-77
2023/10/14 10:02:10;;;;;;;13.10;1.80;;;;;;;16.92;47.40;101435.22;5057460;28;20068;-78
2023/10/14 10:04:45;;;;;;;12.60;1.80;;;;;;;17.18;47.37;101437.75;5056682;28;20025;-79
2023/10/14 10:07:32;;;;;;;12.02;1.90;;;;;;;17.46;46.77;101444.63;5054434;28;20037;-77
2023/10/14 10:10:01;;;;;;;11.98;1.80;;;;;;;17.57;46.49;101447.19;5055070;28;20035;-77
2023/10/14 10:12:31;;;;;;;8.30;1.70;;;;;;;17.73;45.77;101446.25;5055192;28;20041;-76
2023/10/14 10:15:06;;;;;;;11.10;1.80;;;;;;;17.43;46.06;101440.25;5055920;28;20044;-78
2023/10/14 10:17:38;;;;;;;11.10;1.60;;;;;;;18.04;46.04;101453.06;5056373;28;20042;-79
2023/10/14 10:20:09;;;;;;;9.82;1.52;;;;;;;17.86;44.72;101454.94;5058290;28;20124;-78
2023/10/14 10:22:50;;;;;;;7.63;1.48;;;;;;;17.74;44.65;101464.72;5066138;28;20032;-78
2023/10/14 10:25:22;;;;;;;8.80;1.80;;;;;;;17.72;45.92;101460.31;5064666;28;20028;-77
2023/10/14 10:27:55;;;;;;;9.88;1.40;;;;;;;17.41;45.83;101471.00;5073819;28;20605;-77
2023/10/14 10:30:25;;;;;;;8.27;1.73;;;;;;;17.10;45.84;101466.75;5070588;28;20036;-77
2023/10/14 10:32:50;;;;;;;9.30;1.58;;;;;;;17.12;45.91;101464.13;5059637;28;20482;-79
2023/10/14 10:35:21;;;;;;;13.25;1.90;;;;;;;17.36;45.46;101469.28;5059433;28;20043;-78
2023/10/14 10:37:50;;;;;;;12.15;1.70;;;;;;;16.75;47.55;101487.94;5059581;28;20112;-77
2023/10/14 10:40:22;;;;;;;10.95;1.60;;;;;;;17.00;46.87;101476.47;5065445;28;20094;-79
2023/10/14 10:43:09;;;;;;;10.73;1.55;;;;;;;17.07;46.16;101474.69;5059370;28;20041;-79
2023/10/14 10:45:40;;;;;;;9.40;1.35;;;;;;;16.98;45.48;101472.06;5057826;28;20060;-78
2023/10/14 10:48:07;;;;;;;9.13;1.45;;;;;;;17.30;44.92;101470.19;5058097;28;20060;-77
2023/10/14 10:50:34;;;;;;;9.18;1.48;;;;;;;17.11;45.86;101496.63;5057039;28;20040;-78
2023/10/14 10:53:09;;;;;;;12.63;1.80;;;;;;;16.71;45.15;101487.97;5053650;28;20033;-77
2023/10/14 10:55:41;;;;;;;;;;;;;;;17.25;44.47;101477.25;5055570;28;20577;-80
2023/10/14 10:58:14;;;;;;;10.60;1.73;;;;;;;17.17;44.21;101492.19;5054011;28;19917;-78
2023/10/14 11:00:47;;;;;;;11.15;2.08;;;;;;;17.23;45.06;101486.91;5053946;28;20035;-79
2023/10/14 11:03:14;;;;;;;9.73;2.08;;;;;;;17.34;45.17;101487.72;5055950;28;20064;-78
2023/10/14 11:05:41;;;;;;;8.98;1.70;;;;;;;17.10;45.61;101494.84;5054846;28;20021;-80
2023/10/14 11:08:10;;;;;;;7.13;1.70;;;;;;;16.70;44.92;101497.63;5054028;28;20037;-78
2023/10/14 11:10:39;;;;;;;6.43;1.30;;;;;;;16.78;42.68;101489.66;5060534;28;20033;-79
2023/10/14 11:13:12;;;;;;;10.07;1.55;;;;;;;17.11;44.59;101500.13;5060903;28;20044;-77
2023/10/14 11:15:43;;;;;;;5.82;1.50;;;;;;;17.14;44.92;101491.34;5058864;28;20025;-79
2023/10/14 11:18:09;;;;;;;6.53;1.42;;;;;;;16.85;44.11;101508.09;5054322;28;20045;-78
2023/10/14 11:20:46;;;;;;;9.88;1.50;;;;;;;17.01;45.72;101514.22;5053797;28;20025;-79
2023/10/14 11:23:12;;;;;;;12.35;1.58;;;;;;;17.06;46.00;101512.44;5052546;28;20033;-81
2023/10/14 11:25:49;;;;;;;12.30;1.67;;;;;;;17.63;45.45;101511.34;5055658;28;20029;-80
2023/10/14 11:28:17;;;;;;;11.00;1.65;;;;;;;18.14;44.66;101514.53;5046940;28;20052;-79
2023/10/14 11:30:55;;;;;;;9.20;1.45;;;;;;;17.59;44.43;101509.56;5054376;28;20119;-76
2023/10/14 11:33:25;;;;;;;8.48;1.58;;;;;;;17.25;45.57;101508.00;5054236;28;20718;-78
2023/10/14 11:35:50;;;;;;;7.28;1.60;;;;;;;17.98;44.95;101518.19;5052717;28;20029;-77
2023/10/14 11:38:19;;;;;;;11.15;1.98;;;;;;;17.08;45.40;101529.09;5056608;28;20041;-77
2023/10/14 11:40:49;;;;;;;13.10;2.30;;;;;;;17.22;46.23;101531.69;5056045;28;20143;-76
2023/10/14 11:43:21;;;;;;;9.30;1.77;;;;;;;17.43;45.41;101516.69;5062558;28;20051;-77
2023/10/14 11:45:46;;;;;;;11.43;1.75;;;;;;;17.68;43.82;101522.75;5061467;28;20340;-77
2023/10/14 11:48:22;;;;;;;7.63;1.92;;;;;;;17.44;45.89;101526.31;5058488;28;20032;-77
2023/10/14 11:50:50;;;;;;;12.00;2.00;;;;;;;17.60;45.80;101539.47;5058935;28;20109;-77
2023/10/14 11:53:27;;;;;;;8.05;1.65;;;;;;;17.25;45.23;101534.34;5056434;28;20025;-77
2023/10/14 11:55:59;;;;;;;10.07;2.00;;;;;;;16.64;45.05;101534.47;5057178;28;20025;-78
2023/10/14 11:58:33;;;;;;;11.80;1.60;;;;;;;16.80;44.49;101546.72;5060490;28;20035;-77
2023/10/14 12:00:59;;;;;;;4.95;1.20;;;;;;;16.63;42.89;101533.59;5054066;28;20039;-77
2023/10/14 12:03:34;;;;;;;10.93;1.48;;;;;;;16.77;44.82;101541.44;5056806;28;20069;-77
2023/10/14 12:05:59;;;;;;;9.10;1.40;;;;;;;17.22;44.89;101551.03;5054097;28;20033;-77
2023/10/14 12:08:30;;;;;;;8.02;1.33;;;;;;;17.05;45.93;101544.94;5052933;28;20029;-76
2023/10/14 12:10:59;;;;;;;7.60;1.80;;;;;;;16.90;46.55;101543.19;5054324;28;20040;-78
2023/10/14 12:13:25;;;;;;;8.43;1.30;;;;;;;17.20;46.48;101547.50;5054924;28;20486;-76
2023/10/14 12:15:51;;;;;;;6.78;1.23;;;;;;;17.71;45.67;101548.22;5053665;28;20033;-78
2023/10/14 12:18:20;;;;;;;12.10;1.50;;;;;;;17.12;44.60;101541.41;5054949;28;20025;-77
2023/10/14 12:20:46;;;;;;;13.00;1.60;;;;;;;17.51;45.42;101553.53;5053960;28;20029;-77
2023/10/14 12:23:19;;;;;;;8.77;1.60;;;;;;;17.72;43.79;101544.69;5054481;28;20037;-77
2023/10/14 12:25:49;;;;;;;7.05;2.08;;;;;;;18.17;43.77;101540.91;5052634;28;20449;-77
2023/10/14 12:28:34;;;;;;;7.43;1.42;;;;;;;17.90;44.50;101547.22;5054796;28;20120;-77
2023/10/14 12:31:06;;;;;;;8.07;1.30;;;;;;;18.23;44.86;101552.31;5053260;28;20033;-78
2023/10/14 12:33:41;;;;;;;9.13;1.52;;;;;;;17.97;43.99;101546.31;5053224;28;20032;-76